Bowman, California
Current Conditions -  °F | °C
As of 6:35 PM on Friday 24 Oct 2014 (Local Time) from KTRK Reporting Station
Clear Clear  
Wind Chill: 59°   Ceiling: Unl
Heat Index: 59°   Visibility: 10mi
Dew Point: 23°   Wind: 20mph
Humidity: 25%   Direction: 200°SSW
Pressure: 30.05"   Gusts: 28mph
Location:  39.2432°N, 120.071°W
Report Text: KTRK 250135Z AUTO 20017G24KT 10SM CLR 15/M05 A3005 RMK AO2
Loading
Personal Weather Stations






























Interactive Weather Map
Tropical Storm Tracking
New forecast layout! Learn more

10-Day Weather Forecast

Advertisements
Track Severe Weather on mobile